Time;durP1;ratioP1;P1;durP2;ratioP2;P2;SDS_P1;SDS_P2;PMS_P1;PMS_P2;Temp;Humidity;BMP_temperature;BMP_pressure;BME280_temperature;BME280_humidity;BME280_pressure;Samples;Min_cycle;Max_cycle;Signal;HPM_P1;HPM_P2
2021/04/05 00:00:27;;;;;;;17.53;9.00;;;4.10;97.30;;;;;;4976104;28;20707;-91
2021/04/05 00:02:53;;;;;;;16.10;7.77;;;4.00;97.30;;;;;;4975191;28;20170;-87
2021/04/05 00:05:30;;;;;;;19.53;8.33;;;4.10;97.30;;;;;;4992703;28;20498;-90
2021/04/05 00:07:57;;;;;;;16.40;7.80;;;4.10;97.30;;;;;;4993285;28;20757;-87
2021/04/05 00:10:31;;;;;;;19.40;9.30;;;4.00;97.30;;;;;;4975075;28;20429;-90
2021/04/05 00:12:59;;;;;;;21.17;7.20;;;4.10;97.30;;;;;;4977073;28;20504;-88
2021/04/05 00:15:25;;;;;;;20.40;8.23;;;4.10;97.30;;;;;;4978190;28;20460;-89
2021/04/05 00:17:51;;;;;;;20.53;8.03;;;4.00;97.30;;;;;;4978440;28;20413;-88
2021/04/05 00:20:24;;;;;;;22.30;8.20;;;4.10;97.30;;;;;;4995102;28;20423;-87
2021/04/05 00:22:49;;;;;;;22.83;8.40;;;4.00;97.30;;;;;;4998092;28;20912;-88
2021/04/05 00:25:15;;;;;;;19.63;8.10;;;4.00;97.30;;;;;;4997722;28;20502;-87
2021/04/05 00:27:42;;;;;;;21.77;8.20;;;4.00;97.30;;;;;;4997440;28;20268;-88
2021/04/05 00:30:18;;;;;;;19.40;8.43;;;4.00;97.30;;;;;;4998626;28;20649;-89
2021/04/05 00:32:47;;;;;;;19.67;8.77;;;4.00;97.30;;;;;;4997360;28;20478;-91
2021/04/05 00:35:22;;;;;;;24.00;8.73;;;4.00;97.30;;;;;;4997291;28;20466;-88
2021/04/05 00:48:48;;;;;;;19.63;8.83;;;4.00;97.30;;;;;;5052120;28;20428;-88
2021/04/05 00:51:18;;;;;;;17.23;8.80;;;4.00;97.30;;;;;;5050016;28;20417;-87
2021/04/05 00:53:46;;;;;;;23.60;10.30;;;4.00;97.30;;;;;;5050725;28;20492;-87
2021/04/05 00:56:17;;;;;;;18.63;8.30;;;3.90;97.30;;;;;;5051077;28;20482;-87
2021/04/05 00:58:43;;;;;;;19.50;8.60;;;3.90;97.30;;;;;;5053851;28;20471;-87
2021/04/05 01:01:13;;;;;;;28.00;9.47;;;3.90;97.30;;;;;;5068742;28;20470;-89
2021/04/05 01:03:41;;;;;;;26.37;9.37;;;3.90;97.30;;;;;;5068508;28;20441;-89
2021/04/05 01:06:13;;;;;;;21.70;7.87;;;3.90;97.30;;;;;;5069512;28;20413;-91
2021/04/05 01:08:38;;;;;;;19.43;8.50;;;3.90;97.30;;;;;;5068969;28;20417;-90
2021/04/05 01:11:05;;;;;;;23.00;8.60;;;3.90;97.30;;;;;;5061643;28;20426;-88
2021/04/05 01:13:30;;;;;;;21.83;8.87;;;3.90;97.30;;;;;;5053285;28;20240;-90
2021/04/05 01:15:56;;;;;;;16.50;7.60;;;3.90;97.30;;;;;;5049688;28;20461;-88
2021/04/05 01:18:22;;;;;;;22.40;8.43;;;3.90;97.30;;;;;;5049284;28;20258;-91
2021/04/05 01:20:48;;;;;;;23.80;9.20;;;3.90;97.30;;;;;;5048881;28;20547;-90
2021/04/05 01:23:19;;;;;;;13.53;7.73;;;3.90;97.30;;;;;;5049686;28;20450;-89
2021/04/05 01:25:46;;;;;;;18.33;7.70;;;3.90;97.30;;;;;;5049959;28;20418;-87
2021/04/05 01:28:12;;;;;;;20.50;8.47;;;4.00;97.30;;;;;;5050072;28;20772;-91
2021/04/05 01:30:40;;;;;;;24.63;10.23;;;4.00;97.30;;;;;;5050047;28;20413;-90
2021/04/05 01:33:22;;;;;;;21.90;8.57;;;4.00;97.30;;;;;;5049542;28;20691;-89
2021/04/05 01:35:52;;;;;;;18.03;8.40;;;4.00;97.30;;;;;;5066887;28;20421;-87
2021/04/05 01:52:53;;;;;;;27.03;8.80;;;4.00;97.30;;;;;;5015408;28;20994;-90
2021/04/05 01:55:19;;;;;;;27.43;8.87;;;4.00;97.30;;;;;;5035128;28;20439;-91
2021/04/05 01:57:45;;;;;;;21.27;9.63;;;4.00;97.30;;;;;;5036756;28;20208;-88
2021/04/05 02:00:14;;;;;;;22.17;9.17;;;4.00;97.30;;;;;;5036708;28;20445;-91
2021/04/05 02:02:41;;;;;;;21.80;9.50;;;4.00;97.30;;;;;;5035759;28;20173;-89
2021/04/05 02:05:09;;;;;;;29.40;9.20;;;4.00;97.30;;;;;;5035889;28;20522;-90
2021/04/05 02:07:36;;;;;;;23.60;9.83;;;4.00;97.30;;;;;;5035018;28;20426;-88
2021/04/05 02:10:09;;;;;;;23.73;9.30;;;4.10;97.30;;;;;;5035125;28;20736;-88
2021/04/05 02:12:35;;;;;;;30.70;11.00;;;4.10;97.30;;;;;;5034313;28;20407;-91
2021/04/05 02:15:01;;;;;;;22.77;9.40;;;4.10;97.30;;;;;;5034381;28;20488;-90
2021/04/05 02:17:27;;;;;;;24.50;10.63;;;4.10;97.30;;;;;;5034133;28;20553;-91
2021/04/05 02:19:54;;;;;;;21.83;9.23;;;4.10;97.30;;;;;;5034321;28;21039;-91
2021/04/05 02:22:20;;;;;;;25.17;10.30;;;4.10;97.30;;;;;;5033845;28;20173;-88
2021/04/05 02:24:46;;;;;;;26.03;10.20;;;4.10;97.30;;;;;;5034147;28;20483;-89
2021/04/05 02:27:13;;;;;;;27.93;9.83;;;4.10;97.30;;;;;;5033713;28;20678;-92
2021/04/05 02:29:38;;;;;;;26.13;10.07;;;4.10;97.30;;;;;;5034673;28;20462;-87
2021/04/05 02:32:04;;;;;;;28.43;9.27;;;4.20;97.30;;;;;;5033809;28;20426;-89
2021/04/05 02:34:31;;;;;;;33.90;10.20;;;4.20;97.30;;;;;;5033662;28;20199;-87
2021/04/05 02:36:56;;;;;;;29.13;10.03;;;4.30;97.30;;;;;;5033696;28;20450;-87
2021/04/05 02:39:23;;;;;;;27.80;11.93;;;4.30;97.30;;;;;;5034059;28;20850;-90
2021/04/05 02:41:50;;;;;;;36.33;10.47;;;4.30;97.30;;;;;;5033015;28;20586;-89
2021/04/05 02:44:18;;;;;;;28.80;9.47;;;4.30;97.30;;;;;;5033272;28;20435;-87
2021/04/05 02:46:46;;;;;;;24.53;9.57;;;4.30;97.30;;;;;;5033938;28;20426;-90
2021/04/05 02:49:14;;;;;;;30.90;11.30;;;4.30;97.30;;;;;;5032407;28;20407;-90
2021/04/05 02:51:46;;;;;;;21.93;9.77;;;4.30;97.30;;;;;;5032134;28;20459;-87
2021/04/05 02:54:16;;;;;;;22.00;9.03;;;4.30;97.30;;;;;;5032883;28;20452;-88
2021/04/05 02:56:43;;;;;;;21.83;9.17;;;4.30;97.30;;;;;;5032899;28;20443;-90
2021/04/05 02:59:09;;;;;;;28.67;11.00;;;4.30;97.30;;;;;;5031107;28;20443;-90
2021/04/05 03:01:38;;;;;;;26.63;10.40;;;4.30;97.30;;;;;;5030906;28;20466;-90
2021/04/05 03:04:04;;;;;;;23.40;10.77;;;4.20;97.30;;;;;;5032564;28;20446;-90
2021/04/05 03:06:30;;;;;;;28.07;10.83;;;4.20;97.30;;;;;;5032774;28;20784;-90
2021/04/05 03:09:01;;;;;;;27.20;10.40;;;4.30;97.30;;;;;;5032209;28;20428;-91
2021/04/05 03:11:29;;;;;;;24.80;10.20;;;4.20;97.30;;;;;;5038734;28;20184;-90
2021/04/05 03:13:55;;;;;;;26.80;11.10;;;4.20;97.30;;;;;;5033261;28;20977;-87
2021/04/05 03:16:23;;;;;;;30.60;10.50;;;4.20;97.30;;;;;;5033354;28;20482;-88
2021/04/05 03:18:51;;;;;;;29.63;9.80;;;4.20;97.30;;;;;;5032494;28;20716;-89
2021/04/05 03:21:19;;;;;;;28.33;10.13;;;4.20;97.30;;;;;;5032201;28;20502;-90
2021/04/05 03:23:45;;;;;;;24.63;10.43;;;4.20;97.30;;;;;;5032414;28;20443;-87
2021/04/05 03:26:11;;;;;;;22.20;8.17;;;4.30;97.30;;;;;;5032164;28;20415;-89
2021/04/05 03:28:37;;;;;;;23.27;10.53;;;4.30;97.30;;;;;;5031797;28;20557;-90
2021/04/05 03:31:18;;;;;;;30.33;10.20;;;4.30;97.30;;;;;;5032044;28;20207;-91
2021/04/05 03:33:58;;;;;;;34.13;11.20;;;4.30;97.30;;;;;;5031505;28;20631;-90
2021/04/05 03:36:50;;;;;;;28.33;10.40;;;4.30;97.30;;;;;;5031984;28;20497;-89
2021/04/05 03:39:16;;;;;;;26.00;10.70;;;4.30;97.30;;;;;;5021435;28;20459;-88
2021/04/05 03:41:48;;;;;;;29.70;10.20;;;4.30;97.30;;;;;;5033646;28;21005;-87
2021/04/05 03:44:23;;;;;;;37.40;10.87;;;4.20;97.30;;;;;;5051609;23;20882;-86
2021/04/05 03:46:50;;;;;;;29.70;11.97;;;4.20;97.30;;;;;;5016354;28;20443;-83
2021/04/05 03:49:29;;;;;;;32.83;13.03;;;4.20;97.30;;;;;;5017563;28;20550;-82
2021/04/05 03:52:12;;;;;;;29.00;10.20;;;4.10;97.30;;;;;;5019718;28;20419;-82
2021/04/05 03:54:51;;;;;;;24.80;10.20;;;4.10;97.30;;;;;;5017314;28;20812;-86
2021/04/05 03:57:21;;;;;;;24.77;10.90;;;4.10;97.30;;;;;;5019286;28;20459;-82
2021/04/05 03:59:52;;;;;;;22.73;9.13;;;4.10;97.30;;;;;;5017486;28;20782;-82
2021/04/05 04:02:27;;;;;;;23.60;10.67;;;4.10;97.30;;;;;;5018282;28;20420;-82
2021/04/05 04:07:43;;;;;;;28.37;10.17;;;4.00;97.30;;;;;;5017975;28;20862;-84
2021/04/05 04:10:12;;;;;;;37.60;11.20;;;4.00;97.30;;;;;;5016361;28;20422;-82
2021/04/05 04:12:43;;;;;;;26.57;10.53;;;4.00;97.30;;;;;;5016196;28;20935;-85
2021/04/05 04:15:12;;;;;;;27.50;11.20;;;4.00;97.30;;;;;;5014983;28;20519;-83
2021/04/05 04:17:38;;;;;;;33.63;11.63;;;4.00;97.30;;;;;;5016095;28;20447;-80
2021/04/05 04:20:10;;;;;;;30.53;12.70;;;4.00;97.30;;;;;;5015500;28;20420;-82
2021/04/05 04:22:37;;;;;;;27.70;10.73;;;4.00;97.30;;;;;;5016889;28;20423;-80
2021/04/05 04:25:04;;;;;;;20.80;10.03;;;4.00;97.30;;;;;;5014421;28;20475;-82
2021/04/05 04:27:30;;;;;;;46.57;12.53;;;4.00;97.30;;;;;;5018466;28;20827;-80
2021/04/05 04:29:57;;;;;;;41.90;11.80;;;4.00;97.30;;;;;;5025205;28;20470;-83
2021/04/05 04:32:23;;;;;;;36.10;11.83;;;4.00;97.30;;;;;;5023802;28;20181;-80
2021/04/05 04:34:49;;;;;;;35.53;11.70;;;4.10;97.30;;;;;;5025263;28;20440;-80
2021/04/05 04:37:15;;;;;;;27.17;9.87;;;4.10;97.30;;;;;;5018400;28;20490;-82
2021/04/05 04:39:41;;;;;;;27.83;11.37;;;4.10;97.30;;;;;;5015452;28;20181;-81
2021/04/05 04:42:08;;;;;;;32.97;11.93;;;4.10;97.30;;;;;;5015547;28;20435;-81
2021/04/05 04:44:33;;;;;;;29.07;12.13;;;4.10;97.30;;;;;;5014855;28;20518;-80
2021/04/05 04:46:59;;;;;;;29.27;11.30;;;4.20;97.30;;;;;;5014275;28;20433;-81
2021/04/05 04:49:25;;;;;;;28.63;11.93;;;4.20;97.30;;;;;;5014807;28;20169;-80
2021/04/05 04:51:51;;;;;;;30.60;12.27;;;4.20;97.30;;;;;;5014956;28;20464;-81
2021/04/05 04:54:16;;;;;;;30.43;11.90;;;4.30;97.30;;;;;;5015437;28;20327;-81
2021/04/05 04:56:42;;;;;;;35.23;11.47;;;4.30;97.30;;;;;;5015223;28;20197;-82
2021/04/05 04:59:10;;;;;;;43.00;11.90;;;4.30;97.30;;;;;;5014890;28;20218;-81
2021/04/05 05:01:40;;;;;;;25.00;10.20;;;4.30;97.30;;;;;;5010789;28;20755;-85
2021/04/05 05:04:11;;;;;;;32.33;10.77;;;4.30;97.30;;;;;;5013672;28;20805;-85
2021/04/05 05:06:39;;;;;;;23.43;11.60;;;4.30;97.30;;;;;;5020920;28;20416;-85
2021/04/05 05:09:05;;;;;;;37.77;12.03;;;4.30;97.30;;;;;;5011417;28;20412;-85
2021/04/05 05:11:31;;;;;;;27.77;11.17;;;4.40;97.30;;;;;;5013384;28;20447;-86
2021/04/05 05:13:58;;;;;;;24.30;9.90;;;4.40;97.30;;;;;;5010354;28;20452;-86
2021/04/05 05:16:28;;;;;;;23.50;9.87;;;4.40;97.30;;;;;;5010769;28;20472;-85
2021/04/05 05:18:54;;;;;;;29.47;11.40;;;4.50;97.30;;;;;;5010902;28;20424;-86
2021/04/05 05:21:36;;;;;;;24.40;11.30;;;4.50;97.30;;;;;;5010808;28;20424;-86
2021/04/05 05:24:04;;;;;;;27.20;10.73;;;4.50;97.30;;;;;;5013849;28;20439;-86
2021/04/05 05:26:33;;;;;;;29.47;10.20;;;4.60;97.30;;;;;;5031105;28;20430;-86
2021/04/05 05:29:07;;;;;;;25.47;10.50;;;4.60;97.30;;;;;;5026346;28;20438;-86
2021/04/05 05:31:40;;;;;;;35.50;11.07;;;4.60;97.30;;;;;;5033063;28;20407;-86
2021/04/05 05:34:08;;;;;;;28.30;11.23;;;4.70;97.30;;;;;;5037458;28;20450;-86
2021/04/05 05:36:35;;;;;;;32.73;10.90;;;4.70;97.30;;;;;;5036333;28;20496;-86
2021/04/05 05:39:01;;;;;;;30.43;10.53;;;4.80;97.30;;;;;;5036267;28;20484;-85
2021/04/05 05:41:54;;;;;;;26.07;9.97;;;4.90;97.30;;;;;;5035467;28;20457;-87
2021/04/05 05:44:23;;;;;;;23.70;10.23;;;4.90;97.30;;;;;;5018879;28;20552;-86
2021/04/05 05:46:58;;;;;;;34.90;11.83;;;5.00;97.30;;;;;;5021085;28;20665;-86
2021/04/05 05:49:35;;;;;;;28.40;9.93;;;5.10;97.30;;;;;;5021192;28;20420;-86
2021/04/05 05:52:32;;;;;;;31.00;10.37;;;5.10;97.30;;;;;;5021835;28;20446;-86
2021/04/05 05:55:39;;;;;;;30.60;10.17;;;5.20;97.30;;;;;;5009196;28;20436;-86
2021/04/05 05:58:13;;;;;;;36.70;13.07;;;5.20;97.30;;;;;;5000039;28;20469;-86
2021/04/05 06:00:50;;;;;;;30.47;11.90;;;5.30;97.30;;;;;;5001227;28;20622;-86
2021/04/05 06:03:34;;;;;;;37.07;12.13;;;5.30;97.30;;;;;;5010265;28;20420;-85
2021/04/05 06:06:17;;;;;;;30.10;10.57;;;5.40;97.10;;;;;;5025762;28;20448;-87
2021/04/05 06:09:07;;;;;;;24.90;10.23;;;5.40;97.20;;;;;;5026161;28;20412;-85
2021/04/05 06:11:48;;;;;;;27.27;10.30;;;5.40;96.90;;;;;;5024345;28;20392;-84
2021/04/05 06:14:32;;;;;;;25.10;9.80;;;5.50;96.80;;;;;;5025266;28;20436;-87
2021/04/05 06:17:13;;;;;;;23.87;9.47;;;5.50;96.80;;;;;;5021806;28;20451;-87
2021/04/05 06:19:50;;;;;;;27.10;9.33;;;5.50;96.70;;;;;;5027777;28;20993;-84
2021/04/05 06:22:53;;;;;;;22.17;9.50;;;5.50;96.60;;;;;;5016546;28;20435;-85
2021/04/05 06:25:24;;;;;;;21.20;8.17;;;5.60;96.60;;;;;;5010062;28;20433;-85
2021/04/05 06:27:59;;;;;;;24.70;8.40;;;5.60;96.50;;;;;;5010155;28;20431;-86
2021/04/05 06:30:38;;;;;;;24.90;8.70;;;5.60;96.40;;;;;;5005618;28;20408;-86
2021/04/05 06:33:21;;;;;;;33.03;9.10;;;5.70;96.30;;;;;;5009623;28;20771;-87
2021/04/05 06:36:11;;;;;;;23.90;8.30;;;5.70;96.20;;;;;;5011074;28;20554;-86
2021/04/05 06:38:45;;;;;;;25.30;8.60;;;5.80;96.10;;;;;;5017633;28;20444;-86
2021/04/05 06:41:17;;;;;;;19.53;9.37;;;5.80;95.80;;;;;;5018430;28;20876;-86
2021/04/05 06:44:05;;;;;;;40.30;10.87;;;5.90;95.60;;;;;;5032189;28;20804;-85
2021/04/05 06:46:56;;;;;;;28.10;8.90;;;6.00;95.00;;;;;;5008397;28;20439;-85
2021/04/05 06:49:56;;;;;;;21.57;9.60;;;6.10;94.60;;;;;;5014871;28;20439;-86
2021/04/05 06:52:38;;;;;;;30.50;10.80;;;6.20;94.60;;;;;;5013263;28;20431;-86
2021/04/05 06:55:38;;;;;;;24.40;8.73;;;6.40;94.10;;;;;;5014920;28;20451;-86
2021/04/05 06:58:24;;;;;;;28.80;11.33;;;6.50;93.70;;;;;;5014015;28;20467;-86
2021/04/05 07:01:08;;;;;;;26.30;10.13;;;6.60;93.40;;;;;;5030928;28;20443;-86
2021/04/05 07:03:41;;;;;;;23.57;10.23;;;6.70;93.20;;;;;;5014697;28;20424;-85
2021/04/05 07:06:20;;;;;;;25.27;10.00;;;6.70;92.80;;;;;;5030042;28;20439;-85
2021/04/05 07:09:08;;;;;;;17.90;7.60;;;6.80;93.00;;;;;;5013393;28;20424;-85
2021/04/05 07:12:12;;;;;;;30.53;8.77;;;6.90;92.30;;;;;;5028962;28;20515;-85
2021/04/05 07:14:47;;;;;;;29.80;10.37;;;6.90;92.30;;;;;;4991338;28;20538;-85
2021/04/05 07:17:46;;;;;;;27.63;9.80;;;6.90;92.30;;;;;;5011008;28;20464;-86
2021/04/05 07:20:42;;;;;;;36.70;10.40;;;6.90;92.20;;;;;;5009619;28;20446;-84
2021/04/05 07:23:26;;;;;;;24.33;9.33;;;6.90;92.10;;;;;;5016551;28;20804;-85
2021/04/05 07:26:23;;;;;;;20.37;10.30;;;7.00;91.90;;;;;;5011828;28;20499;-86
2021/04/05 07:29:17;;;;;;;19.10;9.00;;;7.00;91.90;;;;;;5007840;28;20852;-85
2021/04/05 07:32:09;;;;;;;25.60;9.87;;;7.00;92.10;;;;;;5002243;28;20494;-85
2021/04/05 07:34:42;;;;;;;28.50;10.33;;;7.00;92.10;;;;;;5013009;28;20470;-85
2021/04/05 07:37:36;;;;;;;21.80;9.03;;;7.00;92.20;;;;;;5019766;28;21052;-85
2021/04/05 07:40:20;;;;;;;22.60;10.97;;;7.10;92.40;;;;;;5004522;28;20847;-86
2021/04/05 07:42:50;;;;;;;25.13;10.73;;;7.10;92.30;;;;;;5013355;28;20710;-85
2021/04/05 07:45:38;;;;;;;24.27;10.40;;;7.20;91.90;;;;;;5006948;28;20469;-85
2021/04/05 07:48:22;;;;;;;30.97;10.73;;;7.30;91.90;;;;;;5013437;28;20500;-84
2021/04/05 07:50:47;;;;;;;34.33;12.33;;;7.40;91.30;;;;;;5023135;28;20443;-87
2021/04/05 07:53:26;;;;;;;27.77;9.40;;;7.50;91.40;;;;;;5011057;28;20420;-87
2021/04/05 07:55:54;;;;;;;21.13;9.83;;;7.60;91.20;;;;;;5002598;28;20213;-85
2021/04/05 07:58:39;;;;;;;28.67;10.67;;;7.60;91.00;;;;;;5002820;28;20420;-86
2021/04/05 08:01:24;;;;;;;26.17;9.03;;;7.70;91.30;;;;;;5008419;28;20420;-87
2021/04/05 08:04:15;;;;;;;28.60;10.47;;;7.70;91.30;;;;;;5011260;28;20508;-87
2021/04/05 08:07:04;;;;;;;26.33;10.77;;;7.70;91.30;;;;;;5013916;28;20436;-87
2021/04/05 08:09:45;;;;;;;26.70;11.23;;;7.70;91.40;;;;;;5012411;28;20424;-85
2021/04/05 08:12:30;;;;;;;28.07;10.80;;;7.80;91.20;;;;;;5010670;28;20775;-86
2021/04/05 08:15:07;;;;;;;26.53;10.10;;;7.80;91.70;;;;;;5012657;28;20455;-86
2021/04/05 08:18:02;;;;;;;24.20;11.47;;;7.90;92.00;;;;;;5031476;28;20462;-86
2021/04/05 08:20:35;;;;;;;26.17;10.60;;;7.90;92.00;;;;;;5012839;28;20416;-86
2021/04/05 08:23:26;;;;;;;28.03;12.03;;;8.00;91.90;;;;;;4994482;28;20413;-83
2021/04/05 08:26:01;;;;;;;32.57;11.70;;;8.00;92.10;;;;;;4994906;28;20979;-85
2021/04/05 08:28:51;;;;;;;33.00;11.57;;;8.10;92.10;;;;;;5002987;28;21010;-84
2021/04/05 08:31:35;;;;;;;29.57;13.00;;;8.10;92.00;;;;;;5014429;28;20503;-86
2021/04/05 08:34:31;;;;;;;24.67;10.97;;;8.20;92.00;;;;;;5014250;28;20432;-85
2021/04/05 08:37:41;;;;;;;37.40;13.67;;;8.20;92.10;;;;;;5013813;28;20447;-83
2021/04/05 08:40:12;;;;;;;31.37;12.30;;;8.20;92.10;;;;;;4994357;28;20460;-84
2021/04/05 08:43:03;;;;;;;27.40;11.30;;;8.20;92.50;;;;;;5014547;28;20543;-82
2021/04/05 08:45:45;;;;;;;30.63;12.00;;;8.20;93.00;;;;;;5014227;28;20494;-84
2021/04/05 08:48:20;;;;;;;27.70;12.43;;;8.20;94.30;;;;;;5002855;28;20424;-84
2021/04/05 08:50:59;;;;;;;33.67;12.20;;;8.10;95.10;;;;;;4994718;28;20443;-84
2021/04/05 08:53:25;;;;;;;35.50;13.67;;;8.00;96.40;;;;;;4999450;28;20400;-84
2021/04/05 08:55:56;;;;;;;36.77;12.80;;;7.90;97.30;;;;;;5017679;28;20421;-85
2021/04/05 08:58:38;;;;;;;41.67;14.47;;;7.80;97.30;;;;;;5017525;28;20432;-81
2021/04/05 09:01:07;;;;;;;38.07;15.40;;;7.70;97.30;;;;;;5027673;28;20408;-85
2021/04/05 09:03:36;;;;;;;31.67;13.63;;;7.60;97.30;;;;;;5019760;28;20419;-84
2021/04/05 09:06:11;;;;;;;45.87;13.97;;;7.50;97.30;;;;;;5018144;28;20436;-84
2021/04/05 09:08:37;;;;;;;34.80;14.90;;;7.40;97.30;;;;;;5033845;28;20407;-83
2021/04/05 09:11:04;;;;;;;38.27;15.97;;;7.30;97.30;;;;;;5019291;28;20452;-84
2021/04/05 09:14:00;;;;;;;35.80;15.20;;;7.30;97.30;;;;;;5016463;28;20180;-85
2021/04/05 09:16:51;;;;;;;302.20;192.77;;;7.20;97.30;;;;;;5017442;28;20464;-84
2021/04/05 09:19:35;;;;;;;43.00;16.30;;;7.20;97.30;;;;;;5017926;28;20515;-84
2021/04/05 09:22:13;;;;;;;47.10;16.17;;;7.10;97.30;;;;;;5010630;28;20512;-84
2021/04/05 09:24:56;;;;;;;41.20;14.40;;;7.10;97.30;;;;;;4995972;28;20491;-83
2021/04/05 09:27:52;;;;;;;36.17;14.67;;;7.10;97.30;;;;;;4996442;28;20432;-85
2021/04/05 09:30:30;;;;;;;34.70;16.30;;;7.00;97.30;;;;;;4996427;28;20797;-85
2021/04/05 09:33:17;;;;;;;37.73;16.63;;;7.00;97.30;;;;;;4996897;28;20425;-86
2021/04/05 09:36:07;;;;;;;40.83;15.53;;;7.00;97.30;;;;;;4996030;28;20445;-84
2021/04/05 09:38:47;;;;;;;37.03;15.50;;;6.90;97.30;;;;;;4996274;28;20417;-84
2021/04/05 09:41:31;;;;;;;39.10;15.60;;;6.90;97.30;;;;;;4998010;28;20400;-85
2021/04/05 09:44:10;;;;;;;32.80;14.87;;;6.90;97.30;;;;;;4996237;28;20915;-85
2021/04/05 09:47:02;;;;;;;43.97;14.27;;;6.80;97.30;;;;;;5023952;23;20549;-90
2021/04/05 09:49:51;;;;;;;37.53;16.00;;;6.80;97.30;;;;;;5015161;28;20463;-89
2021/04/05 09:52:54;;;;;;;36.70;15.47;;;6.80;97.30;;;;;;5029346;28;20430;-90
2021/04/05 09:55:25;;;;;;;37.20;14.83;;;6.70;97.30;;;;;;4995637;28;20456;-87
2021/04/05 09:58:03;;;;;;;33.10;14.67;;;6.70;97.30;;;;;;4996149;28;20467;-88
2021/04/05 10:00:29;;;;;;;34.53;12.13;;;6.70;97.30;;;;;;4997022;28;20420;-89
2021/04/05 10:03:03;;;;;;;26.57;12.30;;;6.60;97.30;;;;;;4998149;28;20924;-87
2021/04/05 10:05:32;;;;;;;26.90;10.87;;;6.60;97.30;;;;;;5007647;28;20464;-88
2021/04/05 10:07:59;;;;;;;26.47;11.53;;;6.60;97.30;;;;;;5017891;28;20424;-88
2021/04/05 10:10:26;;;;;;;29.77;13.50;;;6.60;97.30;;;;;;5014777;28;20415;-89
2021/04/05 10:12:55;;;;;;;32.80;11.97;;;6.60;97.30;;;;;;5017765;28;20462;-91
2021/04/05 10:15:27;;;;;;;29.30;11.00;;;6.50;97.30;;;;;;5016931;28;20459;-89
2021/04/05 10:18:00;;;;;;;33.07;14.30;;;6.50;97.30;;;;;;5016764;28;20456;-90
2021/04/05 10:20:30;;;;;;;33.00;13.20;;;6.40;97.30;;;;;;5017596;28;20447;-88
2021/04/05 10:23:01;;;;;;;25.33;10.87;;;6.40;97.30;;;;;;5017044;28;20906;-90
2021/04/05 10:25:29;;;;;;;24.80;10.87;;;6.40;97.30;;;;;;5017977;28;20993;-90
2021/04/05 10:27:58;;;;;;;30.47;13.43;;;6.30;97.30;;;;;;5018417;28;20420;-91
2021/04/05 10:30:33;;;;;;;32.20;13.47;;;6.30;97.30;;;;;;5017066;28;20427;-88
2021/04/05 10:33:06;;;;;;;26.43;9.47;;;6.30;97.30;;;;;;5015572;28;20448;-88
2021/04/05 10:35:36;;;;;;;29.40;12.43;;;6.30;97.30;;;;;;5016676;28;20436;-89
2021/04/05 10:38:05;;;;;;;27.67;11.43;;;6.30;97.30;;;;;;5015651;28;20949;-89
2021/04/05 10:40:33;;;;;;;7.40;3.83;;;6.30;97.30;;;;;;5015816;28;20415;-88
2021/04/05 10:43:11;;;;;;;2.93;1.70;;;5.90;97.30;;;;;;5015220;28;20543;-88
2021/04/05 10:45:39;;;;;;;2.47;1.80;;;4.60;97.30;;;;;;5014687;28;20512;-87
2021/04/05 10:54:52;;;;;;;1.93;1.90;;;3.00;97.30;;;;;;4951316;23;20395;-76
2021/04/05 10:57:17;;;;;;;5.40;2.57;;;2.80;97.30;;;;;;5051222;28;20466;-75
2021/04/05 10:59:49;;;;;;;1.90;1.80;;;2.80;97.30;;;;;;5050547;28;20421;-75
2021/04/05 11:02:25;;;;;;;2.50;2.07;;;2.70;97.30;;;;;;5050792;28;20195;-76
2021/04/05 11:04:59;;;;;;;2.47;1.80;;;2.70;97.30;;;;;;5050719;28;20501;-77
2021/04/05 11:07:28;;;;;;;4.40;2.30;;;2.70;97.30;;;;;;5050931;28;20418;-77
2021/04/05 11:09:56;;;;;;;1.97;1.90;;;2.70;97.30;;;;;;5051133;28;20450;-77
2021/04/05 11:12:23;;;;;;;2.30;2.20;;;2.80;97.30;;;;;;5050550;28;20442;-75
2021/04/05 11:14:51;;;;;;;5.27;3.87;;;2.80;97.30;;;;;;5051301;28;20497;-77
2021/04/05 11:17:21;;;;;;;2.97;2.40;;;2.90;97.30;;;;;;5051271;28;20877;-76
2021/04/05 11:19:56;;;;;;;4.43;2.30;;;2.90;97.30;;;;;;5050250;28;20494;-75
2021/04/05 11:22:28;;;;;;;3.73;2.27;;;3.00;97.30;;;;;;5049970;28;20432;-76
2021/04/05 11:25:00;;;;;;;4.10;2.60;;;3.00;97.30;;;;;;5050424;28;20445;-76
2021/04/05 11:27:28;;;;;;;3.67;2.60;;;3.00;97.30;;;;;;5050319;28;20417;-76
2021/04/05 11:29:58;;;;;;;4.13;2.60;;;3.00;97.30;;;;;;5050566;28;20422;-75
2021/04/05 11:32:28;;;;;;;5.83;3.40;;;3.10;97.30;;;;;;5050155;28;20442;-75
2021/04/05 11:34:59;;;;;;;7.87;4.30;;;3.10;97.30;;;;;;5050077;28;20426;-75
2021/04/05 11:37:31;;;;;;;6.03;4.50;;;3.10;97.30;;;;;;5050542;28;20527;-75
2021/04/05 11:40:11;;;;;;;8.00;4.70;;;3.10;97.30;;;;;;5050015;28;20460;-75
2021/04/05 11:42:46;;;;;;;8.67;5.20;;;3.10;97.30;;;;;;5050482;28;20957;-75
2021/04/05 11:45:42;;;;;;;8.40;5.33;;;3.10;97.30;;;;;;5049817;28;20414;-75
2021/04/05 11:48:17;;;;;;;6.63;4.37;;;3.10;97.30;;;;;;5039706;28;20419;-77
2021/04/05 11:50:44;;;;;;;15.43;9.43;;;3.20;97.30;;;;;;5050713;28;20511;-77
2021/04/05 11:53:36;;;;;;;7.67;4.57;;;3.20;97.30;;;;;;5047913;28;20908;-75
2021/04/05 12:04:18;;;;;;;22.10;12.80;;;3.40;97.30;;;;;;5043856;28;20418;-76
2021/04/05 12:10:36;;;;;;;7.20;3.23;;;3.60;97.30;;;;;;5049655;28;20442;-74
2021/04/05 12:16:35;;;;;;;3.93;2.70;;;3.70;97.30;;;;;;5029873;28;20474;-75
2021/04/05 12:19:03;;;;;;;7.43;2.70;;;3.80;97.30;;;;;;5029279;28;20423;-74
2021/04/05 12:21:36;;;;;;;3.70;2.60;;;3.70;97.30;;;;;;5029509;28;20489;-77
2021/04/05 12:24:05;;;;;;;4.03;2.60;;;3.60;97.30;;;;;;5030960;28;20400;-76
2021/04/05 12:26:33;;;;;;;4.40;3.23;;;3.60;97.30;;;;;;5034932;28;20445;-74
2021/04/05 12:29:05;;;;;;;2.90;2.07;;;3.70;97.30;;;;;;5049446;28;20453;-74
2021/04/05 12:31:32;;;;;;;3.30;2.80;;;3.70;97.30;;;;;;5040537;23;20496;-74
2021/04/05 12:34:11;;;;;;;2.87;2.47;;;3.80;97.30;;;;;;5009567;28;20430;-73
2021/04/05 12:36:39;;;;;;;7.73;2.40;;;3.80;97.30;;;;;;5009196;28;20837;-74
2021/04/05 12:39:08;;;;;;;5.57;4.27;;;3.90;97.30;;;;;;5009845;28;20436;-75
2021/04/05 12:41:37;;;;;;;3.90;2.53;;;3.90;97.30;;;;;;5007143;28;21065;-73
2021/04/05 12:44:06;;;;;;;4.60;2.53;;;3.90;97.30;;;;;;5008924;28;21057;-73
2021/04/05 12:46:34;;;;;;;4.70;2.30;;;4.00;97.30;;;;;;5010726;28;20456;-75
2021/04/05 12:49:01;;;;;;;7.87;2.30;;;4.00;97.30;;;;;;5025754;28;20432;-78
2021/04/05 12:51:28;;;;;;;2.70;1.90;;;3.90;97.30;;;;;;5022272;28;20459;-77
2021/04/05 12:54:06;;;;;;;1.80;1.80;;;3.70;97.30;;;;;;5006148;28;20428;-78
2021/04/05 12:56:33;;;;;;;5.20;2.87;;;3.50;97.30;;;;;;5003075;28;20558;-77
2021/04/05 12:59:00;;;;;;;4.43;2.53;;;3.20;97.30;;;;;;5024552;28;20447;-76
2021/04/05 13:01:32;;;;;;;2.73;2.00;;;3.00;97.30;;;;;;5006655;28;20814;-76
2021/04/05 13:04:02;;;;;;;4.63;2.10;;;2.90;97.30;;;;;;5015361;28;20415;-79
2021/04/05 13:06:38;;;;;;;4.67;2.60;;;2.70;97.30;;;;;;4997059;28;20425;-77
2021/04/05 13:09:17;;;;;;;5.67;2.57;;;2.70;97.30;;;;;;5000870;28;20420;-77
2021/04/05 13:11:49;;;;;;;1.70;1.63;;;2.70;97.30;;;;;;5001036;28;20475;-75
2021/04/05 13:14:35;;;;;;;3.90;2.00;;;2.60;97.30;;;;;;5015117;28;20411;-77
2021/04/05 13:17:16;;;;;;;2.80;2.10;;;2.70;97.30;;;;;;5019032;28;20548;-77
2021/04/05 13:19:47;;;;;;;1.90;1.80;;;2.70;97.30;;;;;;4999760;28;20418;-77
2021/04/05 13:22:15;;;;;;;2.63;2.43;;;2.70;97.30;;;;;;5000090;28;20435;-76
2021/04/05 13:24:49;;;;;;;2.50;2.30;;;2.80;97.30;;;;;;4999997;28;20409;-73
2021/04/05 13:27:23;;;;;;;2.93;2.30;;;2.80;97.30;;;;;;5014794;28;20420;-76
2021/04/05 13:29:52;;;;;;;2.80;1.70;;;2.90;97.30;;;;;;5013659;28;21188;-77
2021/04/05 13:32:23;;;;;;;5.50;1.90;;;3.00;97.30;;;;;;5001048;28;20468;-76
2021/04/05 13:34:50;;;;;;;3.93;1.77;;;3.00;97.30;;;;;;5001954;28;20424;-76
2021/04/05 13:37:24;;;;;;;2.13;1.97;;;3.00;97.30;;;;;;4997923;28;20485;-78
2021/04/05 13:39:52;;;;;;;2.40;2.20;;;3.10;97.30;;;;;;4998592;28;20540;-75
2021/04/05 13:42:25;;;;;;;2.57;2.17;;;3.20;97.30;;;;;;5017255;28;20440;-75
2021/04/05 13:44:54;;;;;;;2.23;2.03;;;3.20;97.30;;;;;;5005760;28;20507;-76
2021/04/05 13:47:25;;;;;;;1.97;1.90;;;3.10;97.30;;;;;;5002380;28;20425;-75
2021/04/05 13:50:00;;;;;;;3.57;2.63;;;3.10;97.30;;;;;;5006558;28;20424;-77
2021/04/05 13:52:29;;;;;;;13.87;3.20;;;3.10;97.30;;;;;;5009122;28;20534;-75
2021/04/05 13:55:10;;;;;;;2.77;2.47;;;3.00;97.30;;;;;;5010951;28;20415;-74
2021/04/05 13:57:43;;;;;;;2.33;1.90;;;3.10;97.30;;;;;;5010106;28;20463;-74
2021/04/05 14:00:11;;;;;;;1.43;1.40;;;2.90;97.30;;;;;;5009553;28;20421;-75
2021/04/05 14:02:45;;;;;;;1.77;1.77;;;2.80;97.30;;;;;;5012392;28;20815;-74
2021/04/05 14:05:18;;;;;;;1.50;1.40;;;2.70;97.30;;;;;;5014865;28;20420;-75
2021/04/05 14:07:48;;;;;;;1.80;1.70;;;2.60;97.30;;;;;;5013008;28;20416;-74